Auburn, NY

4:24 PM EST on November 25, 2014 (GMT -0500)
Sunholm Farms | Change Station
CLOSE
Current Station
Personal Weather Station
Location: Fleming, NY
Elevation: 784 ft
Nearby Weather Stations

Elev 784 ft 42.86 °N, 76.63 °W | Updated 3 seconds ago

Partly Cloudy
Partly Cloudy
46.7 °F
Feels Like 47 °F
N
0.8
Wind Variable Wind from NNW
Gusts 9.6 mph

Today
High -- | Low -- °F
--% Chance of Precip.
Yesterday
High -- | Low -- °F
Precip. -- in
7:10 AM 4:35 PM
Waxing Crescent, 14% visible
Pressure 29.95 in
Visibility 10.0 miles
Clouds Scattered Clouds 6000 ft
Scattered Clouds 20000 ft
Windchill 47 °F
Dew Point 29 °F
Humidity 50%
Rainfall 0.00 in
Snow Depth Not available.
UV 0 out of 12
Pollen .10 out of 12
Air Quality Not available.
Flu Activity Not available.
METAR KSYR 252054Z 27008KT 10SM SCT060 SCT200 08/M02 A2995 RMK AO2 SLP141 SCT060 V FEW T00781022 53012

More Conditions Fewer Conditions

Pressure 29.95 in
Visibility 10.0 miles
Clouds Scattered Clouds 6000 ft
Scattered Clouds 20000 ft
Windchill 47 °F
Dew Point 29 °F
Humidity 50%
Rainfall 0.00 in
Snow Depth Not available.
UV 0 out of 12
Pollen .10 out of 12
Air Quality Not available.
Flu Activity Not available.
METAR KSYR 252054Z 27008KT 10SM SCT060 SCT200 08/M02 A2995 RMK AO2 SLP141 SCT060 V FEW T00781022 53012

More Conditions Fewer Conditions

10-Day Weather Forecast

Almanac

Astronomy

Nov. 25, 2014 Rise Set
Actual Time
Civil Twilight
Nautical Twilight
Astronomical Twilight
Moon
Length of Visible Light
Length of Day
Tomorrow will be .
, % of the Moon is Illuminated

Today's Extremes

State Highs State Lows

Community

WunderPhotos

Upload Photos

1,773,592 photos uploaded!

WunderBlogs® & News

Nearby

Air Quality

  Air Quality AQ Index Pollutant
Not available.

Snow Depth

Station Depth Elevation

Earthquake Activity

City Distance Mag. Time & Date
Minimum magnitude displayed is 2.5.

Coastal Water Temperatures

Place Temperature

Nearby Weather Stations